Wilda, Louisiana
Current Conditions -  °F | °C
As of 3:53 PM on Friday 31 Oct 2014 (Local Time) from KAEX Reporting Station
Clear Clear  
Wind Chill: 71°   Ceiling: Unl
Heat Index: 71°   Visibility: 10mi
Dew Point: 46°   Wind: 14mph
Humidity: 41%   Direction: 350°N
Pressure: 30.1"   Gusts: 21mph
Location:  31.3168°N, 92.7338°W
Report Text: KAEX 312053Z 35012G18KT 10SM CLR 22/08 A3010 RMK AO2 SLP197 T02170078 55005
Loading
Personal Weather Stations






























Interactive Weather Map
Tropical Storm Tracking
New forecast layout! Learn more

10-Day Weather Forecast

Advertisements
Track Severe Weather on mobile